createdAt,value
2022-09-15T00:01:23.018Z,3.20
2022-09-15T00:03:50.194Z,3.03
2022-09-15T00:06:17.815Z,3.00
2022-09-15T00:08:44.930Z,3.00
2022-09-15T00:11:17.404Z,3.40
2022-09-15T00:13:44.560Z,3.13
2022-09-15T00:16:14.993Z,3.42
2022-09-15T00:18:42.420Z,3.20
2022-09-15T00:21:11.243Z,3.00
2022-09-15T00:23:38.619Z,3.63
2022-09-15T00:26:09.814Z,3.60
2022-09-15T00:28:37.501Z,3.50
2022-09-15T00:31:06.219Z,3.85
2022-09-15T00:33:33.761Z,3.57
2022-09-15T00:36:03.126Z,3.30
2022-09-15T00:38:30.380Z,3.55
2022-09-15T00:40:58.383Z,3.40
2022-09-15T00:43:45.392Z,3.50
2022-09-15T00:46:12.872Z,3.77
2022-09-15T00:48:42.068Z,3.90
2022-09-15T00:51:09.713Z,3.63
2022-09-15T00:53:37.543Z,4.00
2022-09-15T00:56:05.395Z,4.10
2022-09-15T00:58:54.435Z,4.23
2022-09-15T01:01:21.846Z,4.20
2022-09-15T01:03:49.028Z,4.70
2022-09-15T01:06:19.103Z,4.28
2022-09-15T01:08:49.169Z,4.35
2022-09-15T01:11:17.008Z,3.87
2022-09-15T01:13:45.071Z,4.00
2022-09-15T01:16:26.101Z,4.38
2022-09-15T01:19:12.276Z,3.95
2022-09-15T01:21:45.467Z,3.72
2022-09-15T01:24:25.016Z,3.50
2022-09-15T01:26:55.271Z,4.43
2022-09-15T01:29:41.208Z,4.15
2022-09-15T01:32:46.186Z,4.25
2022-09-15T01:35:28.729Z,3.90
2022-09-15T01:37:59.162Z,4.27
2022-09-15T01:40:29.260Z,4.50
2022-09-15T01:42:57.379Z,4.07
2022-09-15T01:45:26.887Z,4.03
2022-09-15T01:47:55.298Z,4.05
2022-09-15T01:50:24.897Z,3.50
2022-09-15T01:52:54.486Z,3.63
2022-09-15T01:55:23.700Z,3.63
2022-09-15T01:57:50.849Z,3.60
2022-09-15T02:00:18.002Z,3.05
2022-09-15T02:02:49.384Z,3.10
2022-09-15T02:05:25.757Z,3.22
2022-09-15T02:08:05.604Z,2.75
2022-09-15T02:10:37.732Z,3.00
2022-09-15T02:13:05.138Z,2.80
2022-09-15T02:15:34.451Z,2.63
2022-09-15T02:18:03.173Z,2.80
2022-09-15T02:20:35.359Z,2.80
2022-09-15T02:23:08.120Z,2.20
2022-09-15T02:25:39.312Z,2.50
2022-09-15T02:28:08.153Z,2.10
2022-09-15T02:30:37.235Z,2.20
2022-09-15T02:33:09.299Z,1.95
2022-09-15T02:35:36.813Z,1.73
2022-09-15T02:38:05.375Z,1.98
2022-09-15T02:40:32.940Z,2.07
2022-09-15T02:43:01.775Z,1.60
2022-09-15T02:45:30.148Z,1.70
2022-09-15T02:47:57.928Z,1.55
2022-09-15T02:50:28.417Z,1.77
2022-09-15T02:52:55.697Z,1.60
2022-09-15T02:55:23.393Z,1.60
2022-09-15T02:57:50.493Z,1.50
2022-09-15T03:00:19.050Z,1.50
2022-09-15T03:02:49.898Z,1.23
2022-09-15T03:05:18.435Z,1.60
2022-09-15T03:07:45.633Z,1.35
2022-09-15T03:10:13.586Z,1.40
2022-09-15T03:12:41.886Z,1.65
2022-09-15T03:15:10.017Z,1.50
2022-09-15T03:17:41.729Z,1.50
2022-09-15T03:20:10.317Z,1.40
2022-09-15T03:22:37.526Z,1.30
2022-09-15T03:25:05.552Z,1.40
2022-09-15T03:27:33.125Z,1.60
2022-09-15T03:30:00.339Z,1.40
2022-09-15T03:32:27.455Z,1.55
2022-09-15T03:34:58.360Z,2.03
2022-09-15T03:37:25.951Z,1.52
2022-09-15T03:39:53.114Z,1.40
2022-09-15T03:42:20.413Z,1.60
2022-09-15T03:44:47.690Z,1.30
2022-09-15T03:47:14.848Z,1.25
2022-09-15T03:49:42.059Z,1.35
2022-09-15T03:52:09.186Z,1.50
2022-09-15T03:54:36.306Z,1.30
2022-09-15T03:57:03.637Z,1.45
2022-09-15T03:59:30.746Z,1.30
2022-09-15T04:01:57.877Z,1.10
2022-09-15T04:04:25.012Z,1.30
2022-09-15T04:06:52.139Z,1.13
2022-09-15T04:09:20.463Z,1.10
2022-09-15T04:11:47.873Z,1.10
2022-09-15T04:14:15.622Z,1.20
2022-09-15T04:16:42.786Z,1.20
2022-09-15T04:19:10.638Z,1.07
2022-09-15T04:21:37.785Z,1.15
2022-09-15T04:24:05.903Z,1.30
2022-09-15T04:26:34.053Z,1.17
2022-09-15T04:29:04.192Z,1.00
2022-09-15T04:31:32.392Z,1.00
2022-09-15T04:33:59.548Z,1.10
2022-09-15T04:36:28.197Z,1.30
2022-09-15T04:38:55.635Z,0.90
2022-09-15T04:41:23.047Z,1.17
2022-09-15T04:43:50.401Z,1.30
2022-09-15T04:46:18.640Z,1.30
2022-09-15T04:48:46.212Z,1.08
2022-09-15T04:51:14.970Z,1.20
2022-09-15T04:53:42.270Z,1.17
2022-09-15T04:56:10.882Z,1.00
2022-09-15T04:58:42.062Z,1.00
2022-09-15T05:01:10.538Z,1.10
2022-09-15T05:03:38.041Z,0.98
2022-09-15T05:06:06.782Z,1.13
2022-09-15T05:08:34.138Z,0.90
2022-09-15T05:11:02.267Z,1.05
2022-09-15T05:13:29.665Z,1.00
2022-09-15T05:15:56.868Z,0.85
2022-09-15T05:18:24.015Z,1.00
2022-09-15T05:20:58.360Z,1.00
2022-09-15T05:23:25.468Z,0.82
2022-09-15T05:25:56.502Z,0.80
2022-09-15T05:28:24.770Z,0.77
2022-09-15T05:30:52.710Z,1.10
2022-09-15T05:33:23.672Z,0.90
2022-09-15T05:35:54.704Z,1.30
2022-09-15T05:38:22.003Z,0.90
2022-09-15T05:40:53.388Z,1.20
2022-09-15T05:43:21.063Z,0.95
2022-09-15T05:45:55.179Z,0.93
2022-09-15T05:48:22.330Z,1.13
2022-09-15T05:50:50.391Z,1.20
2022-09-15T05:53:17.597Z,0.98
2022-09-15T05:55:44.853Z,0.80
2022-09-15T05:58:12.392Z,0.90
2022-09-15T06:00:41.449Z,1.15
2022-09-15T06:03:13.701Z,0.90
2022-09-15T06:05:40.966Z,1.20
2022-09-15T06:08:08.181Z,1.10
2022-09-15T06:10:35.308Z,1.20
2022-09-15T06:13:02.457Z,0.90
2022-09-15T06:15:29.773Z,0.80
2022-09-15T06:18:00.104Z,1.20
2022-09-15T06:20:27.404Z,0.85
2022-09-15T06:22:56.073Z,0.90
2022-09-15T06:25:23.196Z,0.80
2022-09-15T06:27:51.068Z,1.20
2022-09-15T06:30:18.472Z,1.00
2022-09-15T06:32:48.314Z,1.27
2022-09-15T06:35:15.920Z,1.17
2022-09-15T06:37:43.024Z,1.20
2022-09-15T06:40:10.511Z,1.20
2022-09-15T06:42:37.745Z,1.20
2022-09-15T06:45:05.203Z,1.20
2022-09-15T06:47:34.047Z,1.17
2022-09-15T06:50:01.460Z,0.90
2022-09-15T06:52:28.656Z,1.33
2022-09-15T06:54:55.815Z,0.98
2022-09-15T06:57:23.039Z,0.90
2022-09-15T06:59:50.128Z,1.03
2022-09-15T07:02:17.364Z,1.00
2022-09-15T07:04:44.633Z,1.02
2022-09-15T07:07:11.782Z,1.20
2022-09-15T07:09:41.360Z,1.17
2022-09-15T07:12:08.913Z,1.23
2022-09-15T07:14:36.039Z,0.95
2022-09-15T07:17:03.123Z,0.98
2022-09-15T07:19:30.314Z,1.27
2022-09-15T07:21:57.507Z,1.58
2022-09-15T07:24:26.474Z,1.20
2022-09-15T07:26:54.052Z,1.10
2022-09-15T07:29:21.589Z,0.93
2022-09-15T07:31:49.000Z,1.00
2022-09-15T07:34:16.347Z,0.93
2022-09-15T07:36:43.442Z,1.10
2022-09-15T07:39:10.940Z,1.00
2022-09-15T07:41:39.052Z,1.00
2022-09-15T07:44:08.252Z,0.73
2022-09-15T07:46:35.427Z,1.10
2022-09-15T07:49:03.377Z,1.13
2022-09-15T07:51:30.659Z,1.50
2022-09-15T07:53:57.830Z,1.40
2022-09-15T07:56:24.976Z,1.10
2022-09-15T07:58:52.202Z,1.23
2022-09-15T08:01:20.334Z,1.10
2022-09-15T08:03:51.889Z,1.20
2022-09-15T08:06:20.343Z,1.00
2022-09-15T08:08:47.566Z,1.45
2022-09-15T08:11:19.064Z,1.30
2022-09-15T08:13:47.250Z,1.10
2022-09-15T08:16:15.537Z,0.82
2022-09-15T08:18:43.206Z,0.90
2022-09-15T08:21:11.668Z,1.00
2022-09-15T08:23:39.222Z,1.25
2022-09-15T08:26:09.634Z,1.10
2022-09-15T08:28:39.120Z,1.13
2022-09-15T08:31:07.611Z,1.30
2022-09-15T08:33:35.091Z,1.15
2022-09-15T08:36:03.092Z,1.02
2022-09-15T08:38:30.218Z,0.90
2022-09-15T08:41:03.209Z,1.00
2022-09-15T08:43:31.822Z,0.90
2022-09-15T08:46:05.043Z,0.80
2022-09-15T08:48:35.352Z,1.00
2022-09-15T08:51:06.183Z,0.87
2022-09-15T08:53:36.457Z,1.35
2022-09-15T08:56:09.761Z,1.10
2022-09-15T08:58:38.478Z,1.00
2022-09-15T09:01:12.061Z,1.30
2022-09-15T09:03:49.263Z,1.30
2022-09-15T09:06:16.381Z,1.00
2022-09-15T09:09:01.368Z,0.90
2022-09-15T09:11:34.903Z,1.30
2022-09-15T09:14:08.407Z,0.93
2022-09-15T09:16:35.525Z,1.30
2022-09-15T09:19:03.703Z,1.08
2022-09-15T09:21:40.603Z,0.90
2022-09-15T09:24:17.156Z,0.65
2022-09-15T09:26:44.808Z,0.80
2022-09-15T09:29:26.870Z,0.90
2022-09-15T09:31:54.331Z,1.52
2022-09-15T09:34:41.267Z,0.77
2022-09-15T09:37:12.776Z,0.88
2022-09-15T09:39:40.038Z,1.02
2022-09-15T09:42:08.937Z,0.70
2022-09-15T09:44:36.597Z,0.90
2022-09-15T09:47:03.998Z,1.45
2022-09-15T09:49:34.512Z,0.70
2022-09-15T09:52:03.680Z,1.00
2022-09-15T09:54:32.682Z,0.90
2022-09-15T09:57:23.241Z,0.80
2022-09-15T09:59:51.825Z,0.98
2022-09-15T10:02:24.727Z,0.80
2022-09-15T10:04:51.962Z,0.75
2022-09-15T10:07:20.882Z,1.20
2022-09-15T10:09:52.985Z,1.00
2022-09-15T10:12:24.310Z,0.82
2022-09-15T10:14:53.238Z,0.82
2022-09-15T10:17:22.207Z,0.90
2022-09-15T10:19:52.858Z,0.97
2022-09-15T10:22:24.543Z,1.20
2022-09-15T10:24:51.918Z,2.22
2022-09-15T10:27:33.251Z,1.13
2022-09-15T10:30:16.475Z,1.63
2022-09-15T10:32:44.265Z,0.90
2022-09-15T10:35:12.881Z,0.80
2022-09-15T10:37:46.648Z,0.70
2022-09-15T10:40:33.771Z,0.95
2022-09-15T10:43:12.359Z,1.30
2022-09-15T10:45:40.863Z,1.57
2022-09-15T10:48:28.249Z,1.10
2022-09-15T10:51:04.714Z,1.05
2022-09-15T10:53:43.297Z,0.90
2022-09-15T10:56:31.385Z,1.10
2022-09-15T10:59:00.892Z,0.90
2022-09-15T11:01:31.054Z,1.20
2022-09-15T11:04:04.500Z,1.00
2022-09-15T11:06:34.806Z,0.98
2022-09-15T11:09:23.516Z,1.00
2022-09-15T11:11:55.843Z,1.20
2022-09-15T11:14:48.786Z,1.10
2022-09-15T11:17:42.321Z,1.20
2022-09-15T11:20:09.507Z,1.38
2022-09-15T11:22:48.731Z,1.20
2022-09-15T11:25:21.759Z,1.03
2022-09-15T11:27:58.436Z,1.00
2022-09-15T11:30:26.512Z,1.30
2022-09-15T11:32:59.770Z,0.88
2022-09-15T11:35:35.192Z,1.00
2022-09-15T11:38:12.970Z,1.07
2022-09-15T11:40:44.647Z,0.90
2022-09-15T11:43:22.420Z,1.30
2022-09-15T11:45:51.879Z,0.98
2022-09-15T11:48:22.339Z,0.90
2022-09-15T11:50:51.634Z,1.00
2022-09-15T11:53:32.029Z,1.33
2022-09-15T11:56:08.571Z,0.90
2022-09-15T11:58:41.959Z,0.88
2022-09-15T12:01:12.080Z,1.00
2022-09-15T12:04:00.252Z,1.00
2022-09-15T12:06:31.120Z,0.88
2022-09-15T12:09:12.179Z,0.93
2022-09-15T12:11:43.087Z,1.00
2022-09-15T12:14:30.537Z,0.82
2022-09-15T12:16:57.882Z,0.90
2022-09-15T12:19:34.429Z,1.40
2022-09-15T12:22:06.405Z,1.20
2022-09-15T12:24:52.128Z,0.98
2022-09-15T12:27:20.202Z,1.10
2022-09-15T12:29:54.491Z,1.20
2022-09-15T12:32:28.936Z,0.98
2022-09-15T12:35:00.672Z,1.10
2022-09-15T12:37:35.537Z,1.33
2022-09-15T12:40:05.566Z,1.17
2022-09-15T12:42:33.420Z,1.03
2022-09-15T12:45:00.821Z,0.93
2022-09-15T12:47:34.013Z,0.88
2022-09-15T12:50:11.083Z,0.77
2022-09-15T12:52:59.118Z,1.10
2022-09-15T12:55:36.516Z,1.00
2022-09-15T12:58:11.241Z,0.90
2022-09-15T13:01:00.588Z,1.08
2022-09-15T13:03:55.037Z,1.00
2022-09-15T13:06:23.721Z,0.95
2022-09-15T13:09:05.982Z,0.90
2022-09-15T13:11:39.210Z,0.90
2022-09-15T13:14:14.592Z,0.80
2022-09-15T13:16:44.468Z,1.65
2022-09-15T13:19:21.619Z,0.90
2022-09-15T13:21:54.163Z,0.80
2022-09-15T13:24:25.510Z,0.93
2022-09-15T13:26:55.769Z,1.15
2022-09-15T13:29:24.313Z,1.65
2022-09-15T13:32:12.497Z,1.20
2022-09-15T13:35:09.408Z,0.90
2022-09-15T13:40:38.424Z,0.98
2022-09-15T13:43:11.711Z,1.02
2022-09-15T13:45:50.574Z,0.88
2022-09-15T13:48:26.055Z,1.00
2022-09-15T13:51:06.331Z,0.90
2022-09-15T13:53:37.212Z,1.25
2022-09-15T13:56:07.905Z,1.00
2022-09-15T14:01:23.523Z,0.90
2022-09-15T14:04:00.718Z,0.90
2022-09-15T14:06:35.889Z,0.95
2022-09-15T14:09:07.983Z,1.10
2022-09-15T14:11:36.301Z,0.93
2022-09-15T14:14:03.946Z,0.90
2022-09-15T14:16:33.975Z,1.00
2022-09-15T14:19:01.827Z,1.20
2022-09-15T14:21:30.454Z,0.90
2022-09-15T14:23:58.785Z,0.95
2022-09-15T14:26:27.546Z,1.10
2022-09-15T14:28:59.398Z,1.08
2022-09-15T14:31:31.285Z,0.95
2022-09-15T14:33:58.576Z,0.95
2022-09-15T14:36:28.013Z,2.15
2022-09-15T14:39:17.200Z,0.87
2022-09-15T14:41:44.639Z,0.80
2022-09-15T14:47:28.205Z,0.80
2022-09-15T14:50:14.711Z,1.00
2022-09-15T14:52:43.408Z,0.90
2022-09-15T14:55:14.896Z,0.77
2022-09-15T14:57:45.641Z,1.00
2022-09-15T15:00:18.599Z,1.08
2022-09-15T15:02:51.880Z,1.23
2022-09-15T15:05:22.418Z,0.90
2022-09-15T15:07:50.237Z,0.82
2022-09-15T15:10:22.803Z,0.88
2022-09-15T15:12:53.093Z,0.70
2022-09-15T15:15:20.512Z,0.90
2022-09-15T15:17:50.879Z,0.80
2022-09-15T15:20:19.912Z,0.90
2022-09-15T15:22:48.435Z,1.00
2022-09-15T15:25:24.901Z,1.00
2022-09-15T15:27:58.870Z,1.17
2022-09-15T15:30:31.841Z,1.00
2022-09-15T15:33:19.604Z,1.13
2022-09-15T15:35:46.987Z,1.15
2022-09-15T15:38:16.545Z,0.77
2022-09-15T15:40:44.558Z,1.00
2022-09-15T15:43:21.390Z,1.00
2022-09-15T15:45:57.751Z,1.10
2022-09-15T15:48:25.879Z,0.93
2022-09-15T15:50:53.080Z,0.90
2022-09-15T15:53:26.632Z,0.80
2022-09-15T15:55:55.165Z,1.00
2022-09-15T16:24:27.792Z,0.80
2022-09-15T16:29:38.791Z,0.75
2022-09-15T16:32:07.597Z,0.70
2022-09-15T16:34:34.897Z,0.93
2022-09-15T16:39:58.542Z,0.73
2022-09-15T16:48:48.508Z,0.70
2022-09-15T16:51:27.932Z,1.10
2022-09-15T16:53:56.965Z,1.00
2022-09-15T16:56:24.326Z,0.90
2022-09-15T16:58:58.847Z,0.80
2022-09-15T17:01:29.374Z,0.73
2022-09-15T17:03:56.673Z,0.70
2022-09-15T17:06:24.396Z,0.70
2022-09-15T17:08:52.721Z,0.93
2022-09-15T17:34:48.948Z,0.75
2022-09-15T17:39:59.790Z,0.73
2022-09-15T18:17:29.046Z,0.90
2022-09-15T18:20:03.755Z,1.00
2022-09-15T18:22:36.490Z,0.70
2022-09-15T18:25:04.089Z,0.90
2022-09-15T18:46:00.574Z,0.63
2022-09-15T18:48:28.795Z,0.80
2022-09-15T18:51:03.035Z,0.70
2022-09-15T18:53:30.336Z,0.55
2022-09-15T19:17:27.706Z,1.00
2022-09-15T19:25:19.763Z,0.80
2022-09-15T19:27:47.956Z,0.60
2022-09-15T19:30:15.573Z,0.80
2022-09-15T19:32:42.853Z,0.98
2022-09-15T19:35:11.400Z,0.90
2022-09-15T19:37:40.169Z,0.90
2022-09-15T19:40:09.609Z,0.70
2022-09-15T19:42:38.089Z,0.93
2022-09-15T19:45:05.427Z,1.05
2022-09-15T19:47:32.530Z,0.95
2022-09-15T19:49:59.680Z,0.77
2022-09-15T19:52:27.591Z,0.80
2022-09-15T19:54:54.713Z,0.90
2022-09-15T19:57:22.029Z,0.80
2022-09-15T19:59:49.202Z,0.90
2022-09-15T20:02:16.413Z,0.70
2022-09-15T20:04:43.655Z,0.70
2022-09-15T20:07:10.752Z,0.97
2022-09-15T20:09:38.014Z,0.70
2022-09-15T20:12:05.427Z,0.70
2022-09-15T20:14:32.550Z,0.80
2022-09-15T20:17:01.220Z,1.05
2022-09-15T20:19:28.943Z,0.70
2022-09-15T20:21:56.118Z,0.70
2022-09-15T20:24:24.044Z,0.80
2022-09-15T20:26:51.459Z,0.98
2022-09-15T20:29:18.974Z,0.88
2022-09-15T20:31:46.249Z,0.67
2022-09-15T20:34:13.430Z,1.00
2022-09-15T20:36:41.101Z,0.77
2022-09-15T20:39:10.524Z,0.80
2022-09-15T20:41:38.094Z,0.70
2022-09-15T20:44:09.064Z,0.70
2022-09-15T20:46:36.389Z,0.85
2022-09-15T20:49:03.772Z,0.60
2022-09-15T20:51:32.396Z,0.70
2022-09-15T20:54:00.556Z,1.02
2022-09-15T20:56:28.888Z,0.80
2022-09-15T20:59:02.168Z,0.80
2022-09-15T21:01:36.731Z,0.90
2022-09-15T21:04:04.761Z,0.77
2022-09-15T21:06:32.013Z,0.75
2022-09-15T21:09:02.945Z,1.33
2022-09-15T21:11:30.475Z,1.00
2022-09-15T21:13:58.697Z,1.08
2022-09-15T21:16:27.546Z,1.02
2022-09-15T21:18:55.985Z,1.10
2022-09-15T21:21:30.605Z,0.97
2022-09-15T21:24:03.877Z,1.00
2022-09-15T21:26:32.895Z,1.45
2022-09-15T21:29:00.178Z,0.95
2022-09-15T21:31:28.590Z,1.13
2022-09-15T21:33:55.932Z,0.93
2022-09-15T21:36:24.614Z,1.10
2022-09-15T21:38:52.503Z,1.10
2022-09-15T21:41:23.479Z,1.00
2022-09-15T21:43:55.040Z,0.95
2022-09-15T21:46:23.615Z,1.10
2022-09-15T21:48:50.749Z,0.85
2022-09-15T21:51:23.979Z,0.70
2022-09-15T21:53:52.454Z,0.88
2022-09-15T21:56:19.626Z,0.90
2022-09-15T21:58:46.809Z,0.80
2022-09-15T22:01:14.077Z,0.70
2022-09-15T22:03:42.335Z,1.10
2022-09-15T22:06:13.556Z,1.20
2022-09-15T22:08:40.715Z,0.93
2022-09-15T22:11:08.707Z,1.07
2022-09-15T22:13:37.061Z,0.60
2022-09-15T22:16:05.340Z,0.73
2022-09-15T22:18:32.718Z,0.75
2022-09-15T22:21:06.179Z,0.90
2022-09-15T22:23:33.444Z,0.77
2022-09-15T22:26:02.108Z,0.70
2022-09-15T22:28:29.251Z,0.75
2022-09-15T22:31:00.574Z,0.95
2022-09-15T22:33:28.115Z,0.80
2022-09-15T22:35:55.314Z,1.30
2022-09-15T22:38:22.472Z,0.80
2022-09-15T22:40:49.561Z,1.25
2022-09-15T22:43:16.679Z,0.50
2022-09-15T22:45:43.904Z,0.70
2022-09-15T22:48:11.100Z,0.70
2022-09-15T22:50:38.221Z,0.90
2022-09-15T22:53:05.365Z,0.77
2022-09-15T22:55:32.856Z,0.85
2022-09-15T22:57:59.982Z,0.80
2022-09-15T23:00:27.273Z,0.80
2022-09-15T23:02:54.447Z,1.45
2022-09-15T23:05:21.627Z,1.10
2022-09-15T23:07:48.760Z,1.02
2022-09-15T23:10:16.151Z,0.88
2022-09-15T23:12:43.288Z,1.10
2022-09-15T23:15:10.848Z,1.00
2022-09-15T23:17:39.011Z,1.00
2022-09-15T23:20:06.210Z,0.90
2022-09-15T23:22:33.282Z,1.20
2022-09-15T23:25:00.383Z,1.07
2022-09-15T23:27:27.492Z,1.20
2022-09-15T23:29:54.616Z,0.93
2022-09-15T23:32:21.762Z,0.90
2022-09-15T23:34:48.920Z,1.00
2022-09-15T23:37:16.040Z,0.90
2022-09-15T23:39:43.174Z,0.98
2022-09-15T23:42:10.288Z,0.90
2022-09-15T23:44:37.461Z,1.00
2022-09-15T23:47:04.600Z,1.15
2022-09-15T23:49:31.858Z,0.90
2022-09-15T23:51:58.997Z,1.00
2022-09-15T23:54:27.377Z,1.13
2022-09-15T23:56:55.104Z,0.85
2022-09-15T23:59:22.222Z,1.45
